Time;durP1;ratioP1;P1;durP2;ratioP2;P2;SDS_P1;SDS_P2;PMS_P1;PMS_P2;Temp;Humidity;BMP_temperature;BMP_pressure;BME280_temperature;BME280_humidity;BME280_pressure;Samples;Min_cycle;Max_cycle;Signal;HPM_P1;HPM_P2
2022/01/14 00:01:14;;;;;;;9.00;7.45;;;18.20;32.30;;;;;;5108220;27;46901;-14
2022/01/14 00:03:40;;;;;;;9.75;7.72;;;18.30;32.30;;;;;;5108487;27;46906;-16
2022/01/14 00:06:07;;;;;;;9.68;8.18;;;18.20;32.30;;;;;;5107532;27;47988;-13
2022/01/14 00:08:35;;;;;;;9.77;7.63;;;18.20;32.30;;;;;;5107939;27;46807;-14
2022/01/14 00:11:03;;;;;;;9.45;8.00;;;18.20;32.40;;;;;;5108242;27;46791;-14
2022/01/14 00:13:48;;;;;;;9.00;7.15;;;18.10;32.40;;;;;;5108120;27;47337;-15
2022/01/14 00:16:15;;;;;;;8.15;7.13;;;18.10;32.50;;;;;;5107755;27;49334;-15
2022/01/14 00:18:42;;;;;;;9.18;7.45;;;18.10;32.60;;;;;;5107882;27;46907;-14
2022/01/14 00:21:08;;;;;;;10.05;7.82;;;18.00;32.50;;;;;;5108154;27;46794;-14
2022/01/14 00:23:39;;;;;;;9.75;7.80;;;18.10;32.60;;;;;;5107907;27;46841;-15
2022/01/14 00:31:44;;;;;;;9.93;7.82;;;18.10;32.50;;;;;;5105197;27;47031;-15
2022/01/14 00:34:11;;;;;;;9.80;8.50;;;18.10;32.40;;;;;;5107794;27;47018;-14
2022/01/14 00:36:38;;;;;;;10.43;8.30;;;18.10;32.30;;;;;;5107562;27;47062;-15
2022/01/14 00:39:07;;;;;;;9.85;7.78;;;18.10;32.20;;;;;;5107637;27;46822;-14
2022/01/14 00:41:34;;;;;;;9.80;7.93;;;18.20;32.30;;;;;;5107489;27;46876;-14
2022/01/14 00:44:02;;;;;;;10.77;8.25;;;18.20;32.20;;;;;;5107922;27;46826;-14
2022/01/14 00:46:29;;;;;;;9.25;7.82;;;18.20;32.20;;;;;;5107627;27;48164;-15
2022/01/14 00:48:56;;;;;;;9.80;7.75;;;18.20;32.70;;;;;;5107191;27;46818;-15
2022/01/14 00:51:23;;;;;;;9.98;7.90;;;18.20;32.10;;;;;;5107345;27;46907;-15
2022/01/14 00:53:49;;;;;;;10.60;8.70;;;18.30;32.80;;;;;;5107115;27;46845;-14
2022/01/14 00:56:26;;;;;;;9.27;7.75;;;18.30;32.10;;;;;;5107096;27;46903;-14
2022/01/14 01:01:37;;;;;;;10.70;8.57;;;18.30;32.00;;;;;;5104580;27;47030;-14
2022/01/14 01:04:04;;;;;;;9.35;7.60;;;18.30;32.00;;;;;;5107424;27;46979;-14
2022/01/14 01:06:31;;;;;;;10.95;8.38;;;18.30;32.00;;;;;;5107287;27;47659;-14
2022/01/14 01:08:58;;;;;;;11.05;8.75;;;18.20;32.10;;;;;;5107111;27;46805;-14
2022/01/14 01:11:30;;;;;;;10.40;7.88;;;18.20;32.10;;;;;;5107434;27;46979;-15
2022/01/14 01:14:04;;;;;;;10.68;8.02;;;18.10;32.20;;;;;;5107477;27;47011;-15
2022/01/14 01:16:30;;;;;;;11.30;8.23;;;18.10;32.20;;;;;;5107119;27;48981;-15
2022/01/14 01:18:57;;;;;;;9.35;8.18;;;18.10;32.30;;;;;;5105991;27;46875;-14
2022/01/14 01:21:24;;;;;;;9.10;7.57;;;18.10;32.20;;;;;;5107309;27;47004;-14
2022/01/14 01:23:50;;;;;;;10.52;8.52;;;18.10;32.20;;;;;;5106950;27;47289;-14
2022/01/14 01:26:24;;;;;;;9.25;7.25;;;18.10;32.20;;;;;;5106945;27;48003;-14
2022/01/14 01:29:00;;;;;;;9.80;7.80;;;18.20;32.30;;;;;;5106970;27;46888;-15
2022/01/14 01:31:38;;;;;;;10.10;7.97;;;18.20;32.10;;;;;;5107071;27;46912;-14
2022/01/14 01:34:07;;;;;;;9.20;7.20;;;18.20;32.00;;;;;;5106833;27;46821;-14
2022/01/14 01:36:34;;;;;;;9.27;7.43;;;18.30;32.10;;;;;;5106766;27;47930;-14
2022/01/14 01:39:00;;;;;;;11.20;8.10;;;18.20;32.10;;;;;;5106771;27;47051;-14
2022/01/14 01:41:27;;;;;;;9.32;8.05;;;18.20;32.10;;;;;;5106561;27;46860;-15
2022/01/14 01:43:55;;;;;;;9.43;7.75;;;18.20;32.10;;;;;;5106443;27;47219;-14
2022/01/14 01:46:23;;;;;;;10.07;7.60;;;18.20;32.10;;;;;;5106366;27;47795;-14
2022/01/14 01:48:50;;;;;;;10.15;8.02;;;18.20;32.20;;;;;;5106085;27;46983;-15
2022/01/14 01:51:17;;;;;;;9.05;7.78;;;18.10;32.20;;;;;;5106709;27;46996;-14
2022/01/14 01:53:44;;;;;;;9.75;8.07;;;18.10;32.20;;;;;;5106630;27;47284;-15
2022/01/14 01:56:11;;;;;;;9.02;7.60;;;18.10;32.40;;;;;;5106681;27;47835;-15
2022/01/14 01:58:37;;;;;;;10.57;8.00;;;18.10;32.40;;;;;;5106236;27;46977;-15
2022/01/14 02:01:06;;;;;;;9.63;8.25;;;18.10;32.40;;;;;;5106724;27;46863;-15
2022/01/14 02:03:33;;;;;;;8.93;7.65;;;18.10;32.30;;;;;;5106195;27;47359;-14
2022/01/14 02:06:00;;;;;;;10.20;8.05;;;18.10;32.20;;;;;;5106406;27;48829;-15
2022/01/14 02:08:26;;;;;;;9.98;8.02;;;18.10;32.20;;;;;;5106188;27;46891;-14
2022/01/14 02:10:53;;;;;;;9.70;7.70;;;18.10;32.10;;;;;;5106428;27;46765;-14
2022/01/14 02:13:20;;;;;;;9.90;7.93;;;18.10;32.10;;;;;;5106232;27;47155;-14
2022/01/14 02:15:50;;;;;;;9.48;7.57;;;18.10;32.10;;;;;;5106253;27;48883;-14
2022/01/14 02:18:32;;;;;;;9.23;7.75;;;18.10;32.10;;;;;;5106071;27;46890;-15
2022/01/14 02:23:50;;;;;;;10.02;7.60;;;18.20;32.00;;;;;;5105070;27;47175;-15
2022/01/14 02:26:18;;;;;;;9.27;7.55;;;18.20;31.90;;;;;;5106098;27;46982;-15
2022/01/14 02:28:45;;;;;;;10.73;8.00;;;18.10;31.80;;;;;;5105392;27;46918;-14
2022/01/14 02:31:11;;;;;;;9.02;7.75;;;18.10;31.90;;;;;;5105914;27;46985;-14
2022/01/14 02:33:38;;;;;;;9.50;7.55;;;18.10;31.90;;;;;;5105287;27;46895;-14
2022/01/14 02:36:07;;;;;;;11.50;8.60;;;18.10;31.80;;;;;;5105681;27;47842;-14
2022/01/14 02:38:34;;;;;;;9.63;7.85;;;18.20;31.80;;;;;;5105373;27;47099;-15
2022/01/14 02:41:01;;;;;;;10.32;8.50;;;18.20;31.80;;;;;;5105776;27;46900;-15
2022/01/14 02:43:28;;;;;;;10.50;8.35;;;18.10;32.40;;;;;;5105837;27;47293;-14
2022/01/14 02:45:56;;;;;;;9.35;7.68;;;18.10;31.70;;;;;;5105654;27;48067;-14
2022/01/14 02:48:24;;;;;;;11.68;8.10;;;18.10;31.70;;;;;;5105315;27;46994;-15
2022/01/14 02:50:58;;;;;;;9.63;7.72;;;18.10;31.70;;;;;;5105598;27;46817;-14
2022/01/14 02:53:30;;;;;;;10.18;7.82;;;18.10;31.70;;;;;;5105865;27;47102;-15
2022/01/14 02:55:57;;;;;;;11.25;8.45;;;18.10;31.70;;;;;;5105417;27;47005;-15
2022/01/14 02:58:25;;;;;;;10.40;8.00;;;18.10;31.70;;;;;;5105446;27;47363;-14
2022/01/14 03:00:52;;;;;;;12.50;8.30;;;18.10;31.60;;;;;;5105944;27;46944;-14
2022/01/14 03:03:22;;;;;;;11.05;8.70;;;18.20;31.70;;;;;;5105341;27;47337;-14
2022/01/14 03:05:49;;;;;;;9.38;7.88;;;18.20;31.70;;;;;;5105584;27;46871;-14
2022/01/14 03:08:16;;;;;;;10.27;8.38;;;18.20;31.60;;;;;;5105438;27;47620;-14
2022/01/14 03:10:45;;;;;;;10.27;7.82;;;18.20;31.50;;;;;;5105293;27;46965;-14
2022/01/14 03:13:11;;;;;;;9.95;8.13;;;18.20;31.50;;;;;;5105630;27;46899;-19
2022/01/14 03:15:38;;;;;;;10.32;8.38;;;18.20;31.50;;;;;;5105535;27;47940;-20
2022/01/14 03:18:05;;;;;;;10.80;8.00;;;18.20;32.20;;;;;;5105073;27;46835;-19
2022/01/14 03:20:46;;;;;;;9.63;7.65;;;18.20;31.50;;;;;;5105223;27;46816;-19
2022/01/14 03:23:14;;;;;;;9.32;7.72;;;18.20;31.50;;;;;;5105527;27;46862;-19
2022/01/14 03:25:51;;;;;;;10.90;7.93;;;18.20;31.50;;;;;;5105018;27;47244;-19
2022/01/14 03:28:22;;;;;;;10.00;7.60;;;18.20;31.50;;;;;;5104955;27;46879;-19
2022/01/14 03:30:49;;;;;;;9.48;7.88;;;18.10;31.50;;;;;;5105466;27;46834;-19
2022/01/14 03:33:16;;;;;;;10.27;7.88;;;18.10;31.70;;;;;;5104984;27;46856;-19
2022/01/14 03:35:43;;;;;;;9.00;7.50;;;18.00;31.70;;;;;;5104906;27;47930;-19
2022/01/14 03:38:09;;;;;;;8.82;7.60;;;18.00;31.80;;;;;;5105000;27;46756;-20
2022/01/14 03:40:36;;;;;;;10.10;7.80;;;18.00;31.80;;;;;;5105299;27;46923;-19
2022/01/14 03:43:03;;;;;;;10.93;7.88;;;17.90;31.80;;;;;;5108750;27;47003;-20
2022/01/14 03:45:31;;;;;;;9.82;7.90;;;17.90;31.80;;;;;;5108254;27;46875;-20
2022/01/14 03:47:58;;;;;;;9.20;8.13;;;17.90;31.80;;;;;;5108091;27;47136;-19
2022/01/14 03:50:27;;;;;;;10.45;8.30;;;17.90;31.80;;;;;;5108454;27;46830;-19
2022/01/14 03:52:53;;;;;;;10.00;7.75;;;17.90;31.70;;;;;;5108297;27;47320;-15
2022/01/14 03:55:20;;;;;;;9.00;7.82;;;17.90;31.60;;;;;;5108466;27;48892;-14
2022/01/14 03:57:47;;;;;;;9.55;7.93;;;18.00;31.60;;;;;;5108286;27;46857;-15
2022/01/14 04:00:15;;;;;;;9.57;7.30;;;18.00;31.50;;;;;;5108436;27;46987;-15
2022/01/14 04:02:43;;;;;;;9.63;8.15;;;18.00;31.50;;;;;;5108331;27;47049;-14
2022/01/14 04:05:10;;;;;;;9.75;7.80;;;18.00;31.50;;;;;;5108372;27;47813;-14
2022/01/14 04:07:36;;;;;;;9.00;7.55;;;18.00;31.50;;;;;;5108360;27;46893;-19
2022/01/14 04:10:04;;;;;;;10.57;8.38;;;18.00;32.10;;;;;;5108329;27;46802;-19
2022/01/14 04:12:44;;;;;;;8.48;7.50;;;18.00;31.50;;;;;;5107988;27;47236;-19
2022/01/14 04:17:58;;;;;;;10.23;8.00;;;18.00;31.40;;;;;;5105523;27;46914;-19
2022/01/14 04:20:24;;;;;;;7.68;6.88;;;18.00;31.40;;;;;;5108021;27;46978;-19
2022/01/14 04:22:51;;;;;;;9.32;7.75;;;17.90;31.30;;;;;;5108147;27;46933;-19
2022/01/14 04:25:18;;;;;;;9.07;7.40;;;18.00;31.40;;;;;;5108090;27;48748;-19
2022/01/14 04:27:44;;;;;;;8.73;7.75;;;18.00;32.00;;;;;;5107347;27;46843;-20
2022/01/14 04:30:11;;;;;;;9.18;7.45;;;18.00;31.30;;;;;;5107916;27;46880;-20
2022/01/14 04:32:38;;;;;;;8.98;7.00;;;18.00;31.30;;;;;;5107972;27;47293;-19
2022/01/14 04:35:07;;;;;;;8.05;6.97;;;18.00;31.30;;;;;;5107857;27;47071;-20
2022/01/14 04:37:34;;;;;;;9.77;7.63;;;18.00;31.20;;;;;;5107514;27;47008;-19
2022/01/14 04:40:00;;;;;;;8.93;7.40;;;18.10;31.20;;;;;;5107754;27;46877;-19
2022/01/14 04:42:28;;;;;;;9.25;7.70;;;18.10;31.10;;;;;;5107541;27;47238;-20
2022/01/14 04:44:56;;;;;;;8.85;7.25;;;18.10;31.10;;;;;;5107468;27;49014;-19
2022/01/14 04:47:32;;;;;;;8.88;7.78;;;18.10;31.00;;;;;;5107561;27;47269;-19
2022/01/14 04:49:59;;;;;;;9.10;7.47;;;18.10;31.00;;;;;;5107348;27;46903;-19
2022/01/14 04:52:27;;;;;;;8.15;7.32;;;18.20;31.10;;;;;;5107786;27;46887;-19
2022/01/14 04:54:54;;;;;;;9.15;7.30;;;18.20;31.00;;;;;;5107505;27;48122;-19
2022/01/14 04:57:21;;;;;;;9.27;7.32;;;18.10;31.00;;;;;;5107317;27;46924;-20
2022/01/14 04:59:48;;;;;;;9.75;7.65;;;18.20;31.00;;;;;;5107419;27;46885;-20
2022/01/14 05:02:15;;;;;;;8.20;6.60;;;18.10;30.90;;;;;;5107360;27;46927;-19
2022/01/14 05:04:43;;;;;;;8.57;7.22;;;18.10;30.90;;;;;;5107270;27;46886;-19
2022/01/14 05:07:14;;;;;;;9.35;7.75;;;18.10;30.90;;;;;;5107054;27;47534;-19
2022/01/14 05:09:46;;;;;;;8.20;7.13;;;18.10;31.00;;;;;;5107224;27;47025;-19
2022/01/14 05:12:13;;;;;;;8.80;7.03;;;18.10;31.00;;;;;;5107805;27;46988;-19
2022/01/14 05:14:40;;;;;;;10.75;7.60;;;18.10;31.00;;;;;;5106944;27;48108;-20
2022/01/14 05:17:06;;;;;;;9.77;7.60;;;18.10;31.00;;;;;;5107376;27;46834;-19
2022/01/14 05:19:33;;;;;;;10.80;8.52;;;18.10;31.00;;;;;;5106696;27;46913;-19
2022/01/14 05:22:00;;;;;;;7.75;6.90;;;18.00;31.00;;;;;;5107009;27;46897;-18
2022/01/14 05:24:27;;;;;;;9.23;6.85;;;18.00;31.00;;;;;;5106804;27;47951;-19
2022/01/14 05:26:55;;;;;;;10.18;7.32;;;18.00;31.00;;;;;;5106994;27;46865;-19
2022/01/14 05:29:22;;;;;;;9.00;7.25;;;18.00;30.90;;;;;;5106973;27;46723;-19
2022/01/14 05:31:50;;;;;;;9.25;7.22;;;18.00;31.00;;;;;;5106772;27;47288;-20
2022/01/14 05:34:17;;;;;;;10.18;7.72;;;18.00;31.00;;;;;;5105933;27;48791;-18
2022/01/14 05:36:44;;;;;;;9.80;7.20;;;18.00;31.00;;;;;;5106870;27;46819;-19
2022/01/14 05:39:11;;;;;;;9.85;8.07;;;17.90;30.90;;;;;;5106236;27;46887;-19
2022/01/14 05:41:37;;;;;;;9.13;7.40;;;17.90;30.90;;;;;;5106679;27;46883;-14
2022/01/14 05:44:06;;;;;;;9.82;7.75;;;17.90;30.90;;;;;;5106504;27;48807;-14
2022/01/14 05:46:33;;;;;;;9.15;7.30;;;17.90;30.80;;;;;;5106644;27;46892;-13
2022/01/14 05:48:59;;;;;;;7.82;7.03;;;17.90;30.80;;;;;;5106373;27;47075;-14
2022/01/14 05:51:26;;;;;;;8.63;7.35;;;17.90;30.80;;;;;;5106876;27;46974;-14
2022/01/14 05:53:53;;;;;;;10.25;7.90;;;17.90;30.80;;;;;;5106163;27;49063;-13
2022/01/14 05:56:19;;;;;;;9.45;7.15;;;17.90;30.80;;;;;;5106281;27;46913;-14
2022/01/14 05:58:46;;;;;;;9.43;7.63;;;17.90;30.80;;;;;;5106157;27;46896;-14
2022/01/14 06:01:14;;;;;;;9.50;7.80;;;18.00;30.70;;;;;;5106802;27;47258;-14
2022/01/14 06:03:41;;;;;;;9.77;7.45;;;18.00;30.70;;;;;;5105649;27;47307;-15
2022/01/14 06:06:08;;;;;;;9.18;7.15;;;18.00;30.70;;;;;;5106064;27;46821;-14
2022/01/14 06:08:34;;;;;;;9.02;7.50;;;18.00;30.80;;;;;;5105741;27;46865;-14
2022/01/14 06:11:01;;;;;;;8.80;6.90;;;18.00;30.70;;;;;;5106518;27;47269;-14
2022/01/14 06:13:28;;;;;;;10.20;7.53;;;18.00;30.70;;;;;;5104736;27;47126;-14
2022/01/14 06:15:54;;;;;;;9.25;7.80;;;18.10;30.70;;;;;;5105976;27;46942;-14
2022/01/14 06:18:22;;;;;;;8.48;7.07;;;18.10;30.60;;;;;;5106105;27;46988;-14
2022/01/14 06:20:49;;;;;;;8.32;7.38;;;18.10;30.60;;;;;;5106339;27;46877;-14
2022/01/14 06:23:16;;;;;;;9.02;7.85;;;18.10;30.60;;;;;;5106045;27;49054;-14
2022/01/14 06:25:42;;;;;;;10.32;7.40;;;18.10;30.60;;;;;;5105803;27;46834;-14
2022/01/14 06:28:09;;;;;;;8.30;6.88;;;18.10;30.60;;;;;;5105912;27;46996;-14
2022/01/14 06:30:36;;;;;;;8.60;7.45;;;18.10;30.60;;;;;;5106421;27;46905;-14
2022/01/14 06:33:02;;;;;;;9.75;7.50;;;18.10;30.50;;;;;;5105030;27;47004;-14
2022/01/14 06:35:30;;;;;;;8.95;6.88;;;18.10;30.50;;;;;;5105896;27;46859;-15
2022/01/14 06:37:59;;;;;;;8.15;7.05;;;18.10;30.50;;;;;;5105798;27;47003;-14
2022/01/14 06:40:25;;;;;;;9.32;7.47;;;18.10;30.50;;;;;;5106052;27;46959;-14
2022/01/14 06:42:52;;;;;;;9.38;7.10;;;18.10;30.50;;;;;;5105896;27;49052;-14
2022/01/14 06:45:19;;;;;;;8.45;6.90;;;18.10;30.50;;;;;;5105511;27;46970;-15
2022/01/14 06:47:46;;;;;;;10.20;7.55;;;18.10;30.30;;;;;;5104826;27;47024;-15
2022/01/14 06:50:13;;;;;;;8.60;6.85;;;18.10;30.50;;;;;;5105178;27;46889;-15
2022/01/14 06:52:41;;;;;;;8.65;7.13;;;18.10;30.50;;;;;;5105566;27;48178;-14
2022/01/14 06:55:08;;;;;;;7.72;6.93;;;18.10;30.50;;;;;;5105726;27;46954;-14
2022/01/14 06:57:35;;;;;;;8.18;7.15;;;18.00;30.50;;;;;;5105832;27;46753;-14
2022/01/14 07:00:02;;;;;;;8.00;7.13;;;18.00;30.50;;;;;;5105578;27;46931;-15
2022/01/14 07:02:29;;;;;;;9.50;7.57;;;18.00;30.50;;;;;;5105512;27;46985;-13
2022/01/14 07:04:55;;;;;;;8.45;7.53;;;18.00;30.40;;;;;;5105831;27;46990;-15
2022/01/14 07:07:22;;;;;;;8.63;7.13;;;18.00;30.40;;;;;;5105510;27;46880;-15
2022/01/14 07:09:57;;;;;;;8.57;6.93;;;18.00;30.40;;;;;;5105410;27;46826;-15
2022/01/14 07:12:25;;;;;;;8.60;7.45;;;18.00;30.50;;;;;;5105121;27;47769;-15
2022/01/14 07:14:52;;;;;;;8.45;7.55;;;18.00;30.00;;;;;;5105517;27;47033;-15
2022/01/14 07:17:19;;;;;;;9.07;7.00;;;18.00;30.00;;;;;;5108129;27;46912;-15
2022/01/14 07:20:05;;;;;;;8.70;7.00;;;18.00;30.10;;;;;;5109211;27;46922;-15
2022/01/14 07:22:32;;;;;;;9.02;7.05;;;17.90;30.00;;;;;;5108553;27;48238;-17
2022/01/14 07:25:00;;;;;;;8.88;6.95;;;17.90;30.20;;;;;;5108611;27;46943;-15
2022/01/14 07:27:27;;;;;;;8.02;7.10;;;17.90;30.50;;;;;;5108858;27;46934;-14
2022/01/14 07:29:55;;;;;;;8.77;7.63;;;17.90;30.50;;;;;;5093436;27;47327;-15
2022/01/14 07:32:22;;;;;;;9.45;7.18;;;17.90;30.00;;;;;;5088001;28;47019;-16
2022/01/14 07:34:48;;;;;;;8.45;7.35;;;18.00;30.40;;;;;;5088232;28;46834;-16
2022/01/14 07:37:15;;;;;;;9.50;7.60;;;18.00;30.40;;;;;;5087997;28;46848;-15
2022/01/14 07:39:42;;;;;;;8.10;7.07;;;18.00;30.40;;;;;;5088166;28;46877;-15
2022/01/14 07:42:10;;;;;;;8.00;7.03;;;18.00;30.40;;;;;;5088097;28;49123;-15
2022/01/14 07:44:38;;;;;;;8.15;7.15;;;18.00;30.30;;;;;;5087618;28;46934;-15
2022/01/14 07:47:05;;;;;;;7.75;6.95;;;18.10;29.90;;;;;;5088362;27;47026;-14
2022/01/14 07:49:31;;;;;;;9.35;7.30;;;18.10;30.30;;;;;;5087816;28;46791;-15
2022/01/14 07:51:58;;;;;;;9.07;6.90;;;18.10;30.30;;;;;;5087922;28;46841;-14
2022/01/14 07:54:26;;;;;;;8.30;7.30;;;18.10;30.30;;;;;;5087362;28;47158;-14
2022/01/14 07:56:53;;;;;;;8.63;7.43;;;18.10;30.10;;;;;;5087641;28;46909;-14
2022/01/14 07:59:23;;;;;;;9.60;7.35;;;18.10;30.20;;;;;;5087518;28;47205;-14
2022/01/14 08:01:50;;;;;;;7.45;6.25;;;18.20;30.30;;;;;;5087846;28;47855;-14
2022/01/14 08:04:18;;;;;;;8.70;7.13;;;18.20;30.20;;;;;;5087668;28;47441;-15
2022/01/14 08:06:47;;;;;;;8.57;6.72;;;18.20;30.00;;;;;;5087573;27;47014;-16
2022/01/14 08:09:14;;;;;;;7.93;6.95;;;18.20;30.00;;;;;;5087875;27;46989;-15
2022/01/14 08:11:42;;;;;;;8.23;6.88;;;18.20;30.00;;;;;;5087395;28;47147;-17
2022/01/14 08:14:09;;;;;;;8.73;6.88;;;18.20;30.10;;;;;;5087056;28;46944;-15
2022/01/14 08:16:37;;;;;;;7.53;6.43;;;18.20;30.20;;;;;;5086431;28;46961;-15
2022/01/14 08:19:03;;;;;;;8.40;7.10;;;18.20;30.20;;;;;;5086913;28;47066;-15
2022/01/14 08:21:30;;;;;;;8.27;6.93;;;18.10;30.20;;;;;;5087042;28;47076;-15
2022/01/14 08:23:57;;;;;;;8.10;6.65;;;18.10;30.20;;;;;;5087212;28;46799;-14
2022/01/14 08:26:23;;;;;;;8.25;6.72;;;18.10;30.30;;;;;;5087185;28;46888;-15
2022/01/14 08:28:50;;;;;;;8.25;6.75;;;18.10;30.20;;;;;;5088131;27;46873;-14
2022/01/14 08:31:17;;;;;;;7.82;6.50;;;18.10;30.30;;;;;;5086623;28;49070;-15
2022/01/14 08:33:46;;;;;;;7.53;6.10;;;18.10;30.10;;;;;;5086223;27;47691;-15
2022/01/14 08:36:13;;;;;;;7.20;6.38;;;18.10;30.30;;;;;;5087402;28;46820;-14
2022/01/14 08:38:39;;;;;;;7.65;6.63;;;18.10;30.30;;;;;;5086890;28;47268;-14
2022/01/14 08:41:06;;;;;;;9.85;6.85;;;18.10;30.40;;;;;;5086944;28;48811;-15
2022/01/14 08:43:33;;;;;;;7.40;6.30;;;18.00;30.40;;;;;;5087009;28;46838;-14
2022/01/14 08:46:01;;;;;;;7.72;6.60;;;18.00;30.40;;;;;;5086981;28;46897;-14
2022/01/14 08:48:28;;;;;;;8.00;6.65;;;18.10;30.40;;;;;;5086858;28;46839;-14
2022/01/14 08:50:56;;;;;;;7.57;6.45;;;18.10;30.40;;;;;;5086743;28;48848;-15
2022/01/14 08:53:23;;;;;;;7.90;7.10;;;18.10;30.40;;;;;;5086562;28;46895;-14
2022/01/14 08:55:50;;;;;;;7.60;6.82;;;18.10;30.40;;;;;;5086780;28;47015;-13
2022/01/14 08:58:17;;;;;;;8.70;6.93;;;18.10;30.50;;;;;;5093675;27;47188;-14
2022/01/14 09:00:43;;;;;;;9.95;7.22;;;18.10;30.40;;;;;;5097591;27;48218;-14
2022/01/14 09:03:10;;;;;;;7.88;6.50;;;18.10;30.50;;;;;;5095456;27;47159;-14
2022/01/14 09:05:37;;;;;;;8.05;6.93;;;18.10;30.40;;;;;;5099286;27;46952;-15
2022/01/14 09:08:05;;;;;;;8.90;6.97;;;18.10;30.40;;;;;;5107431;27;47059;-15
2022/01/14 09:10:32;;;;;;;9.20;6.68;;;18.20;30.40;;;;;;5107242;27;49045;-14
2022/01/14 09:12:58;;;;;;;7.43;6.22;;;18.20;30.40;;;;;;5106730;27;46897;-15
2022/01/14 09:15:25;;;;;;;8.52;6.68;;;18.20;30.40;;;;;;5107239;27;46735;-14
2022/01/14 09:17:52;;;;;;;7.05;6.28;;;18.20;30.40;;;;;;5107240;27;46967;-14
2022/01/14 09:20:19;;;;;;;7.60;6.57;;;18.30;30.40;;;;;;5106704;27;47027;-14
2022/01/14 09:22:49;;;;;;;8.45;7.18;;;18.30;30.30;;;;;;5106758;27;47237;-14
2022/01/14 09:25:18;;;;;;;7.45;6.10;;;18.30;30.30;;;;;;5107028;27;47044;-14
2022/01/14 09:27:47;;;;;;;7.03;6.32;;;18.30;30.40;;;;;;5107012;27;46910;-14
2022/01/14 09:30:14;;;;;;;6.82;6.13;;;18.30;30.40;;;;;;5106638;27;47859;-14
2022/01/14 09:32:40;;;;;;;8.40;6.57;;;18.30;30.40;;;;;;5106473;27;46798;-14
2022/01/14 09:35:08;;;;;;;6.93;5.80;;;18.40;30.40;;;;;;5106745;27;46961;-14
2022/01/14 09:37:35;;;;;;;6.53;5.78;;;18.40;30.30;;;;;;5106971;27;47100;-14
2022/01/14 09:40:02;;;;;;;9.25;6.03;;;18.40;30.30;;;;;;5105752;27;48755;-14
2022/01/14 09:42:30;;;;;;;6.53;5.82;;;18.40;30.30;;;;;;5106659;27;47526;-13
2022/01/14 09:44:57;;;;;;;7.13;6.03;;;18.40;30.30;;;;;;5106729;27;46901;-14
2022/01/14 09:47:24;;;;;;;7.20;5.97;;;18.40;30.40;;;;;;5101155;27;46859;-14
2022/01/14 09:49:50;;;;;;;7.07;6.32;;;18.40;30.40;;;;;;5106282;27;48746;-14
2022/01/14 09:52:17;;;;;;;8.95;6.35;;;18.30;30.50;;;;;;5106554;27;47003;-14
2022/01/14 09:54:44;;;;;;;6.53;5.47;;;18.30;30.60;;;;;;5106509;27;46857;-14
2022/01/14 09:57:12;;;;;;;6.65;5.57;;;18.30;30.70;;;;;;5106649;27;46983;-15
2022/01/14 09:59:40;;;;;;;8.18;5.93;;;18.20;30.80;;;;;;5106100;27;47076;-14
2022/01/14 10:02:07;;;;;;;7.25;6.32;;;18.20;30.90;;;;;;5106437;27;47166;-14
2022/01/14 10:04:35;;;;;;;7.03;5.60;;;18.20;31.00;;;;;;5106475;27;46935;-14
2022/01/14 10:07:03;;;;;;;6.20;5.60;;;18.20;31.00;;;;;;5106474;27;46996;-14
2022/01/14 10:09:33;;;;;;;6.07;5.50;;;18.20;31.00;;;;;;5105982;27;47144;-14
2022/01/14 10:12:02;;;;;;;6.60;5.70;;;18.20;30.90;;;;;;5106261;27;46907;-15
2022/01/14 10:14:29;;;;;;;5.95;5.35;;;18.30;30.90;;;;;;5106142;27;46993;-15
2022/01/14 10:16:58;;;;;;;7.78;6.00;;;18.30;30.90;;;;;;5106290;27;46869;-14
2022/01/14 10:19:26;;;;;;;6.05;5.45;;;18.30;30.90;;;;;;5105570;27;48869;-15
2022/01/14 10:21:53;;;;;;;5.80;5.30;;;18.30;30.90;;;;;;5105838;27;46932;-14
2022/01/14 10:24:20;;;;;;;7.03;5.28;;;18.30;30.90;;;;;;5105987;27;46914;-14
2022/01/14 10:26:48;;;;;;;6.95;5.80;;;18.40;30.80;;;;;;5106413;27;46983;-15
2022/01/14 10:29:15;;;;;;;6.47;5.60;;;18.40;30.60;;;;;;5105746;27;47355;-15
2022/01/14 10:31:43;;;;;;;7.07;5.70;;;18.40;30.60;;;;;;5105991;27;47205;-14
2022/01/14 10:34:12;;;;;;;6.70;5.20;;;18.50;30.70;;;;;;5105539;27;46956;-15
2022/01/14 10:36:39;;;;;;;7.15;5.75;;;18.50;30.60;;;;;;5106256;27;46942;-14
2022/01/14 10:39:22;;;;;;;6.45;5.75;;;18.50;30.60;;;;;;5095497;27;48770;-15
2022/01/14 10:41:49;;;;;;;6.05;5.18;;;18.60;30.60;;;;;;5097352;27;47047;-15
2022/01/14 10:44:28;;;;;;;6.18;5.15;;;18.60;30.50;;;;;;5105252;27;47010;-15
2022/01/14 10:47:12;;;;;;;6.80;5.50;;;18.70;30.50;;;;;;5105656;27;47225;-21
2022/01/14 10:49:42;;;;;;;5.60;4.60;;;18.80;30.00;;;;;;5103741;27;46937;-15
2022/01/14 10:52:13;;;;;;;5.70;5.03;;;18.80;30.00;;;;;;5109382;27;46916;-16
2022/01/14 10:54:41;;;;;;;5.63;4.72;;;18.80;30.30;;;;;;5109314;27;47168;-15
2022/01/14 10:57:54;;;;;;;6.53;5.45;;;18.90;30.30;;;;;;5109199;27;47224;-16
2022/01/14 11:00:22;;;;;;;6.82;5.53;;;18.90;30.30;;;;;;5087638;28;49139;-15
2022/01/14 11:02:49;;;;;;;7.25;5.70;;;18.90;30.40;;;;;;5088154;27;46921;-15
2022/01/14 11:05:20;;;;;;;7.07;5.28;;;18.90;30.40;;;;;;5088344;28;46881;-15
2022/01/14 11:07:47;;;;;;;6.65;5.13;;;18.90;30.40;;;;;;5088419;28;47012;-15
2022/01/14 11:10:24;;;;;;;6.45;5.18;;;18.90;30.40;;;;;;5088010;28;48247;-16
2022/01/14 11:12:52;;;;;;;5.50;4.55;;;18.90;30.50;;;;;;5088144;28;47293;-15
2022/01/14 11:15:18;;;;;;;6.40;5.25;;;18.90;30.50;;;;;;5088635;28;46837;-15
2022/01/14 11:17:49;;;;;;;6.85;5.25;;;18.80;30.50;;;;;;5088155;28;47343;-15
2022/01/14 11:20:22;;;;;;;5.72;5.00;;;18.80;31.10;;;;;;5088523;27;47416;-15
2022/01/14 11:25:33;;;;;;;6.88;5.50;;;18.80;30.60;;;;;;5085838;28;46957;-15
2022/01/14 11:28:00;;;;;;;6.35;4.75;;;18.80;30.70;;;;;;5087863;28;47314;-15
2022/01/14 11:30:38;;;;;;;7.05;5.47;;;18.80;30.50;;;;;;5088221;28;47016;-15
2022/01/14 11:33:05;;;;;;;6.15;4.93;;;18.80;30.80;;;;;;5078435;28;46952;-20
2022/01/14 11:35:34;;;;;;;6.05;5.28;;;18.80;30.80;;;;;;5067518;28;47127;-21
2022/01/14 11:38:01;;;;;;;5.78;5.20;;;18.90;30.80;;;;;;5067904;28;47344;-20
2022/01/14 11:40:28;;;;;;;5.20;4.70;;;19.00;30.70;;;;;;5067117;28;49072;-20
2022/01/14 11:42:58;;;;;;;6.18;5.55;;;19.10;30.60;;;;;;5066848;28;47466;-20
2022/01/14 11:45:52;;;;;;;5.80;5.20;;;19.20;30.40;;;;;;5067892;28;46870;-20
2022/01/14 11:48:30;;;;;;;5.70;5.10;;;19.30;30.20;;;;;;5061777;28;46898;-20
2022/01/14 11:51:01;;;;;;;6.30;5.13;;;19.40;30.10;;;;;;5067415;28;49496;-20
2022/01/14 11:53:42;;;;;;;5.95;4.82;;;19.40;30.00;;;;;;5066965;28;47057;-20
2022/01/14 11:56:28;;;;;;;5.32;4.82;;;19.50;30.00;;;;;;5065926;28;46997;-20
2022/01/14 11:58:54;;;;;;;5.28;4.75;;;19.50;30.00;;;;;;5066984;28;47010;-18
2022/01/14 12:01:42;;;;;;;6.45;5.15;;;19.50;30.00;;;;;;5066068;28;47804;-18
2022/01/14 12:04:09;;;;;;;5.55;5.05;;;19.50;30.00;;;;;;5063277;28;47146;-19
2022/01/14 12:06:59;;;;;;;6.50;5.30;;;19.50;30.00;;;;;;5066968;28;46941;-19
2022/01/14 12:09:27;;;;;;;5.43;4.78;;;19.50;30.00;;;;;;5066703;28;46922;-19
2022/01/14 12:12:21;;;;;;;5.93;5.28;;;19.50;30.00;;;;;;5067231;28;48796;-19
2022/01/14 12:14:56;;;;;;;6.78;5.07;;;19.50;30.00;;;;;;5067400;28;46966;-19
2022/01/14 12:17:32;;;;;;;5.63;4.90;;;19.50;30.00;;;;;;5066947;28;46861;-19
2022/01/14 12:20:07;;;;;;;5.47;4.97;;;19.50;30.10;;;;;;5067605;28;47131;-18
2022/01/14 12:22:35;;;;;;;5.97;5.38;;;19.50;30.10;;;;;;5067251;28;48139;-19
2022/01/14 12:25:02;;;;;;;6.20;5.20;;;19.40;30.20;;;;;;5066937;28;47555;-19
2022/01/14 12:27:36;;;;;;;6.05;4.72;;;19.40;30.20;;;;;;5066907;28;47000;-18
2022/01/14 12:30:06;;;;;;;7.93;5.38;;;19.40;30.30;;;;;;5067665;28;47159;-19
2022/01/14 12:32:35;;;;;;;5.35;4.75;;;19.40;30.30;;;;;;5066863;28;46969;-18
2022/01/14 12:35:05;;;;;;;5.97;5.38;;;19.40;30.40;;;;;;5067231;28;46816;-19
2022/01/14 12:37:33;;;;;;;5.68;4.85;;;19.40;30.40;;;;;;5067054;28;46922;-19
2022/01/14 12:40:04;;;;;;;5.50;4.68;;;19.40;30.30;;;;;;5066728;28;47005;-19
2022/01/14 12:42:31;;;;;;;5.63;4.60;;;19.50;30.20;;;;;;5066581;28;47906;-19
2022/01/14 12:44:59;;;;;;;5.15;4.65;;;19.60;30.10;;;;;;5066637;28;47260;-20
2022/01/14 12:47:26;;;;;;;6.32;4.53;;;19.70;30.00;;;;;;5066624;28;46826;-20
2022/01/14 12:49:53;;;;;;;6.95;4.90;;;19.70;30.00;;;;;;5067038;28;46859;-20
2022/01/14 12:52:30;;;;;;;4.90;4.38;;;19.80;29.90;;;;;;5066824;28;46933;-20
2022/01/14 12:54:56;;;;;;;5.22;4.72;;;19.80;30.00;;;;;;5066601;28;47380;-20
2022/01/14 12:57:25;;;;;;;5.55;4.78;;;19.80;30.00;;;;;;5066469;28;47061;-20
2022/01/14 12:59:53;;;;;;;5.30;4.70;;;19.70;30.00;;;;;;5066803;28;47195;-15
2022/01/14 13:02:21;;;;;;;5.20;4.40;;;19.60;30.00;;;;;;5066545;28;48099;-15
2022/01/14 13:04:58;;;;;;;5.80;4.95;;;19.60;30.10;;;;;;5066328;28;47247;-15
2022/01/14 13:07:25;;;;;;;6.75;4.90;;;19.40;30.20;;;;;;5066531;28;47053;-15
2022/01/14 13:09:52;;;;;;;5.32;4.72;;;19.30;30.30;;;;;;5066576;28;47043;-15